Main page
METAR-TAF:

METAR-TAF

Airports :

São Paulo–Congonhas Airport

São Paulo, São Paulo, Brazil

latitude: 23-37S, longitude: 046-39W, elevation: 803 m

Current weather observation

The report was made 52 minutes ago, at 06:00 UTC
Wind 4 kt from the East/Northeast
Temperature 19°C
Humidity 60%
Pressure 1022 hPa
Visibility 10 km or more
no clouds below 1500 m and no cumulonimbus

METAR: SBSP 150600Z AUTO 06004KT CAVOK 19/11 Q1022

Time: 03:52 (06:52 UTC)

Forecast

The report was made 2 hours and 22 minutes ago, at 04:30 UTC
Forecast valid from 15 at 06 UTC to 15 at 18 UTC
Wind 7 kt from the North/Northeast
Visibility 10 km or more
no clouds below 1500 m and no cumulonimbus
Becoming
from 15 at 13 UTC to 15 at 15 UTC
Wind 10 kt from the North/Northeast

TAF: SBSP 150430Z 1506/1518 02007KT CAVOK TN18/1510Z TX27/1518Z BECMG 1513/1515 02010KT RMK PHP

Weather observations and forecasts of more than 4000 airports (METAR and TAF reports).

The available stations are represented by yellow and red dots on the map.

Hover mouse over dot to see the name of the station.

Then click to see weather observations and forecasts.

To change the map : click on the green buttons with a black cross to zoom in, on the green button with a dash to zoom out, or on the green arrows for adjacent maps.


METAR-TAF: